Addison, Illinois
Current Conditions -  °F | °C
As of 12:51 AM on Thursday 27 Nov 2014 (Local Time) from KORD Reporting Station
Light Snow Light Snow  
Wind Chill: -9°   Ceiling: 2500
Heat Index: -3°   Visibility: 6mi
Dew Point: -6°   Wind: 13mph
Humidity: 81%   Direction: 310°NW
Pressure: 30.18"   Gusts: NA
Location:  41.93°N, 87.99°W
Report Text: KORD 270651Z 31011KT 6SM -SN OVC025 M03/M06 A3018 RMK AO2 SLP230 P0000 T10331061
Loading
Personal Weather Stations






























Interactive Weather Map New forecast layout! Learn more

10-Day Weather Forecast

Advertisements
Track Severe Weather on mobile